Date,TemperatureHighF,TemperatureAvgF,TemperatureLowF,DewpointHighF,DewpointAvgF,DewpointLowF,HumidityHigh,HumidityAvg,HumidityLow,PressureMaxIn,PressureMinIn,WindSpeedMaxMPH,WindSpeedAvgMPH,GustSpeedMaxMPH,PrecipitationSumIn
2012-1-1,66.2,53.1,37.4,53.5,42.6,29.9,86,69,47,30.21,29.99,22,8,22,0.00
2012-1-2,62.6,49.8,39.2,53.5,27.7,17.3,77,44,29,30.09,29.95,20,11,20,0.00
2012-1-3,39.2,33.0,28.4,17.4,7.9,2.9,42,35,29,30.35,29.99,29,19,29,0.00
2012-1-4,42.8,33.7,21.2,22.9,13.9,6.4,57,45,30,30.44,30.17,15,8,15,0.00
2012-1-5,57.2,44.6,37.4,35.5,23.9,15.2,75,46,30,30.17,30.05,18,8,18,0.00
2012-1-6,64.4,50.8,35.6,42.6,33.7,24.6,74,54,25,30.16,30.05,17,8,17,0.00
2012-1-7,73.4,57.3,48.2,51.5,43.9,37.0,76,62,43,30.10,30.00,17,9,17,0.00
2012-1-8,75.2,58.3,51.8,53.4,49.8,45.7,87,74,35,30.24,30.10,12,8,12,0.00
2012-1-9,62.6,55.6,48.2,53.4,50.6,44.5,93,83,72,30.22,30.09,7,4,7,0.00
2012-1-10,55.4,53.6,50.0,51.6,47.6,44.4,87,80,76,30.11,30.00,9,5,9,0.00
2012-1-11,64.4,58.7,55.4,58.8,53.4,46.3,87,82,67,30.00,29.61,24,11,24,0.00
2012-1-12,64.4,55.3,46.4,53.4,44.1,37.1,82,67,48,29.80,29.64,29,16,29,0.00
2012-1-13,64.4,44.8,35.6,53.2,22.4,15.2,67,41,29,30.10,29.66,36,20,36,0.00
2012-1-14,48.2,39.3,30.2,22.7,19.5,17.1,59,46,31,30.26,30.10,18,9,18,0.00
2012-1-15,51.8,42.7,35.6,27.8,23.6,19.1,69,48,37,30.55,30.16,23,12,23,0.00
2012-1-16,53.6,43.1,28.4,42.7,31.0,19.1,81,63,46,30.60,30.38,12,5,12,0.00
2012-1-17,68.0,56.7,44.6,53.2,47.0,37.2,87,71,56,30.38,30.03,28,10,28,0.00
2012-1-18,62.6,55.3,37.4,55.3,45.7,28.2,82,71,54,30.07,29.93,21,12,21,0.08
2012-1-19,51.8,42.6,33.8,42.7,32.5,26.3,80,68,56,30.24,30.04,13,8,13,0.00
2012-1-20,60.8,52.3,42.8,51.8,42.0,35.4,87,69,51,30.20,30.10,12,8,12,0.00
2012-1-21,69.8,62.2,55.4,55.3,52.8,37.0,93,72,34,30.11,29.93,30,14,30,0.03
2012-1-22,57.2,46.4,42.8,53.4,40.9,35.4,87,81,70,30.32,30.04,20,10,20,0.00
2012-1-23,60.8,51.1,42.8,56.9,45.9,35.4,87,82,75,30.27,30.06,10,7,10,0.00
2012-1-24,73.4,63.3,46.4,60.8,55.6,38.9,93,76,56,30.22,30.06,13,8,13,0.00
2012-1-25,64.4,51.2,37.4,48.1,41.8,33.5,93,73,39,30.30,30.19,12,4,12,0.00
2012-1-26,66.2,59.3,46.4,60.8,54.3,42.7,93,84,77,30.19,29.89,23,8,23,0.00
2012-1-27,69.8,63.2,46.4,60.8,52.7,38.9,88,70,40,30.04,29.73,35,18,35,0.04
2012-1-28,64.4,50.6,37.4,48.1,40.2,33.5,87,69,44,30.16,30.04,10,4,10,0.00
2012-1-29,55.4,46.4,35.6,37.2,28.8,21.0,75,52,26,30.38,30.15,14,7,14,0.00
2012-1-30,60.8,46.0,33.8,35.4,27.1,20.2,80,51,21,30.47,30.32,12,6,12,0.00
2012-1-31,62.6,49.4,33.8,44.4,35.0,26.4,80,61,33,30.46,30.33,14,6,14,0.00
2012-2-1,69.8,60.0,50.0,53.4,48.4,42.5,76,66,52,30.33,30.13,20,9,20,0.00
2012-2-2,73.4,62.6,48.2,55.4,51.3,40.6,87,68,40,30.26,30.05,20,10,20,0.05
2012-2-3,57.2,51.7,46.4,44.4,38.2,31.9,75,60,50,30.47,30.26,22,11,22,0.00
2012-2-4,66.2,57.1,46.4,55.3,47.7,37.1,81,71,63,30.37,30.08,23,8,23,0.00
2012-2-5,73.4,62.4,46.4,57.1,53.0,38.9,77,72,56,30.18,29.96,20,11,20,0.00
2012-2-6,51.8,47.1,42.8,42.7,38.0,35.3,81,71,61,30.26,30.13,14,9,14,0.00
2012-2-7,55.4,49.8,39.2,39.0,37.0,33.5,81,62,47,30.17,30.12,12,6,12,0.00
2012-2-8,60.8,47.6,37.4,37.1,32.9,29.9,80,59,36,30.16,30.06,15,6,15,0.00
2012-2-9,62.6,43.1,35.6,33.7,30.8,27.8,80,63,29,30.30,30.15,18,7,18,0.00
2012-2-10,55.4,48.2,35.6,46.2,40.0,28.1,86,73,66,30.24,29.89,9,5,9,0.00
2012-2-11,55.4,48.3,30.2,42.6,31.9,2.4,81,55,29,30.06,29.72,32,16,32,0.00
2012-2-12,44.6,32.6,26.6,12.0,6.5,0.9,53,33,24,30.29,30.06,33,19,33,0.00
2012-2-13,48.2,37.9,24.8,28.2,19.1,10.0,69,47,35,30.33,30.16,14,8,14,0.00
2012-2-14,55.4,47.4,37.4,44.4,34.3,26.3,80,61,37,30.18,30.07,13,4,13,0.00
2012-2-15,64.4,54.9,42.8,48.1,44.3,38.9,87,68,48,30.27,30.10,12,7,12,0.00
2012-2-16,64.4,57.2,42.8,60.8,52.0,37.1,88,83,70,30.26,30.01,12,6,12,0.00
2012-2-17,64.4,56.7,46.4,55.3,47.0,40.6,87,71,51,30.11,30.00,13,8,13,0.00
2012-2-18,64.4,53.6,39.2,53.4,43.5,31.9,93,70,48,30.11,29.95,10,5,10,0.07
2012-2-19,57.2,52.8,41.0,53.4,47.8,33.7,87,83,75,29.95,29.61,25,12,25,0.51
2012-2-20,53.6,43.6,37.4,33.7,30.1,26.3,80,61,37,30.33,29.83,28,17,28,0.00
2012-2-21,57.2,47.7,35.6,51.6,39.0,24.4,87,72,59,30.34,30.07,9,6,9,0.00
2012-2-22,66.2,58.5,51.8,55.3,49.5,44.5,82,73,59,30.07,29.70,25,12,25,0.00
2012-2-23,69.8,65.4,62.6,60.8,57.9,55.3,82,77,64,29.77,29.67,23,13,23,0.00
2012-2-24,68.0,65.7,60.8,62.5,59.4,44.5,88,80,55,29.85,29.67,26,12,26,0.00
2012-2-25,60.8,50.7,37.4,44.5,25.3,18.6,65,39,22,30.31,29.85,26,13,26,0.00
2012-2-26,53.6,43.4,35.6,39.1,27.2,20.7,75,53,39,30.54,30.31,18,9,18,0.00
2012-2-27,62.6,57.7,51.8,60.5,50.1,38.7,93,76,57,30.45,30.32,12,8,12,0.00
2012-2-28,64.4,56.1,48.2,49.7,46.4,44.2,87,71,51,30.40,30.31,21,11,21,0.00
2012-2-29,73.4,61.5,50.0,62.5,54.6,44.4,87,78,68,30.31,29.96,24,10,24,0.00
2012-3-1,75.2,69.0,64.4,62.5,60.2,57.0,82,74,60,29.98,29.84,28,15,28,0.00
2012-3-2,73.4,65.1,59.0,64.4,58.9,53.5,88,81,73,29.97,29.81,25,9,25,0.00
2012-3-3,68.0,63.2,59.0,60.5,57.0,53.5,82,80,77,29.82,29.71,23,10,23,0.17
2012-3-4,59.0,50.7,39.2,53.5,36.9,20.5,87,62,29,30.10,29.62,28,13,28,0.83
2012-3-5,64.4,52.6,39.2,33.4,25.4,17.0,56,37,18,30.49,30.06,43,20,43,0.00
2012-3-6,53.6,44.5,32.0,39.1,28.5,19.0,81,54,40,30.66,30.49,18,12,18,0.00
2012-3-7,64.4,53.9,42.8,53.5,46.0,35.4,82,75,63,30.63,30.46,17,10,17,0.00
2012-3-8,71.6,62.2,53.6,57.1,54.3,47.9,93,76,56,30.46,30.20,14,7,14,0.00
2012-3-9,71.6,63.9,48.2,60.8,53.7,37.0,87,70,51,30.28,30.11,23,11,23,0.00
2012-3-10,60.8,51.1,42.8,44.3,39.6,35.3,86,66,47,30.49,30.28,21,11,21,0.00
2012-3-11,60.8,52.2,41.0,49.7,42.2,35.3,81,69,57,30.56,30.45,22,10,22,0.00
2012-3-12,69.8,57.5,42.8,55.3,48.1,37.2,87,72,52,30.46,30.31,14,7,14,0.00
2012-3-13,73.4,64.4,59.0,60.5,55.0,51.4,82,72,56,30.31,30.18,15,7,15,0.00
2012-3-14,77.0,67.3,57.2,62.5,57.6,53.4,87,72,61,30.25,30.18,15,8,15,0.00
2012-3-15,75.2,65.5,51.8,62.5,57.9,46.2,88,77,64,30.31,30.22,16,7,16,0.00
2012-3-16,77.0,66.9,57.2,62.5,59.9,53.4,88,79,61,30.26,30.15,17,9,17,0.00
2012-3-17,78.8,67.4,57.2,60.6,57.1,53.4,87,70,47,30.23,30.16,12,7,12,0.00
2012-3-18,69.8,64.1,59.0,60.8,58.8,55.1,93,83,68,30.31,30.20,10,6,10,0.00
2012-3-19,71.6,64.3,57.2,62.5,58.7,51.8,93,82,73,30.23,30.14,12,4,12,0.00
2012-3-20,75.2,66.2,57.2,64.4,59.6,51.8,93,80,64,30.25,30.14,13,5,13,0.00
2012-3-21,73.4,66.4,57.2,64.4,60.6,53.5,93,82,68,30.30,30.20,15,6,15,0.00
2012-3-22,73.4,69.6,64.4,66.2,63.8,62.3,93,82,73,30.27,30.17,13,8,13,0.00
2012-3-23,77.0,68.5,59.0,66.1,62.0,53.5,93,80,69,30.17,30.01,17,6,17,0.00
2012-3-24,75.2,68.7,62.6,66.2,62.7,55.3,88,81,73,30.04,29.80,17,8,17,0.00
2012-3-25,71.6,64.3,57.2,62.5,53.2,48.1,88,69,46,29.81,29.66,18,8,18,0.00
2012-3-26,78.8,65.4,57.2,57.0,52.4,45.6,87,66,31,30.01,29.77,23,11,23,0.00
2012-3-27,62.6,57.2,51.8,51.7,39.8,33.7,72,53,41,30.33,30.01,26,13,26,0.00
2012-3-28,73.4,65.3,51.8,62.2,53.6,42.5,76,66,58,30.30,29.97,20,12,20,0.00
2012-3-29,87.8,72.1,64.4,60.6,57.4,55.1,82,62,33,29.98,29.84,17,12,17,0.00
2012-3-30,75.2,69.4,62.6,62.5,58.2,53.2,88,68,56,30.04,29.89,17,9,17,0.00
2012-3-31,77.0,70.5,64.4,64.4,61.3,57.1,88,73,61,29.92,29.75,24,10,24,0.00
2012-4-1,66.2,63.9,60.8,60.8,56.7,53.2,88,78,67,29.91,29.73,17,9,17,0.00
2012-4-2,84.2,70.6,64.4,64.1,59.4,55.2,88,69,45,29.92,29.70,30,15,30,0.00
2012-4-3,71.6,67.0,62.6,60.5,54.4,51.4,82,65,49,30.04,29.92,13,9,13,0.00
2012-4-4,80.6,70.0,62.6,66.1,62.4,57.0,88,77,54,29.92,29.66,18,8,18,0.05
2012-4-5,78.8,67.2,53.6,66.0,58.9,46.2,82,75,60,29.76,29.66,35,14,35,0.03
2012-4-6,60.8,50.4,44.6,46.3,42.0,37.1,87,74,44,30.06,29.73,25,12,25,0.16
2012-4-7,66.2,53.5,37.4,42.6,36.1,29.3,81,56,25,30.25,30.06,17,8,17,0.00
2012-4-8,77.0,63.4,51.8,56.7,46.8,40.8,71,56,36,30.20,29.98,18,9,18,0.00
2012-4-9,71.6,64.2,57.2,51.7,45.0,32.9,72,52,24,30.09,29.95,18,10,18,0.00
2012-4-10,73.4,65.1,53.6,51.7,46.6,34.9,76,54,26,30.02,29.85,25,12,25,0.00
2012-4-11,66.2,61.1,50.0,46.2,33.2,25.8,55,36,23,30.11,29.85,26,15,26,0.00
2012-4-12,60.8,51.2,39.2,37.3,30.8,24.4,70,46,31,30.23,30.11,21,11,21,0.00
2012-4-13,66.2,55.1,41.0,44.3,38.8,33.7,75,57,36,30.29,30.17,15,5,15,0.00
2012-4-14,71.6,61.8,46.4,57.0,48.1,38.9,81,62,43,30.36,30.26,13,7,13,0.00
2012-4-15,75.2,69.7,64.4,60.5,58.3,55.2,77,68,57,30.28,30.22,26,13,26,0.00
2012-4-16,78.8,70.0,59.0,60.8,58.4,53.5,82,68,47,30.26,30.16,25,11,25,0.00
2012-4-17,80.6,71.2,62.6,65.9,60.7,57.0,88,71,54,30.20,30.07,14,8,14,0.00
2012-4-18,86.0,68.9,59.0,65.9,60.5,53.5,88,75,48,30.12,30.01,12,7,12,0.00
2012-4-19,69.8,65.4,62.6,62.5,59.4,57.0,93,81,73,30.06,29.99,9,6,9,0.00
2012-4-20,73.4,65.8,60.8,62.3,58.2,55.3,88,77,64,30.02,29.87,10,8,10,0.00
2012-4-21,73.4,67.2,60.8,66.2,61.1,53.5,88,81,77,29.90,29.73,13,5,13,0.00
2012-4-22,71.6,66.1,55.4,66.2,59.0,46.2,88,78,68,29.73,29.40,22,9,22,0.12
2012-4-23,59.0,52.9,44.6,48.0,39.4,35.2,81,61,44,29.78,29.55,24,12,24,0.00
2012-4-24,66.2,54.3,41.0,42.7,33.4,27.8,81,49,25,29.87,29.76,25,12,25,0.00
2012-4-25,69.8,58.7,46.4,57.1,46.6,38.7,81,64,57,30.03,29.87,12,7,12,0.00
2012-4-26,84.2,73.3,66.2,62.5,57.4,53.1,73,59,37,29.97,29.85,31,16,31,0.00
2012-4-27,82.4,73.3,66.2,66.0,61.7,57.1,82,68,51,30.06,29.91,20,10,20,0.00
2012-4-28,75.2,71.4,66.2,66.2,64.1,58.7,88,78,60,30.12,30.06,10,7,10,0.00
2012-4-29,80.6,71.4,64.4,66.2,64.0,60.8,88,78,57,30.18,30.10,12,6,12,0.00
2012-4-30,73.4,70.6,68.0,64.4,63.8,62.3,88,79,73,30.25,30.16,14,8,14,0.00
2012-5-1,80.6,74.9,69.8,66.2,65.7,64.0,88,74,57,30.22,30.10,24,12,24,0.00
2012-5-2,84.2,73.8,64.4,69.5,64.7,57.0,88,74,51,30.19,30.06,25,10,25,0.00
2012-5-3,84.2,73.7,64.4,69.5,63.9,57.0,88,72,51,30.17,30.09,16,8,16,0.00
2012-5-4,84.2,74.3,62.6,69.8,65.0,58.8,88,74,58,30.11,29.97,18,8,18,0.00
2012-5-5,89.6,78.6,69.8,71.5,66.5,62.3,83,68,43,29.98,29.78,21,10,21,0.06
2012-5-6,78.8,73.1,69.8,66.2,64.8,62.2,83,75,65,29.99,29.82,17,8,17,0.00
2012-5-7,75.2,68.8,62.6,64.3,61.3,57.0,88,77,68,30.05,29.97,20,10,20,0.00
2012-5-8,77.0,73.1,69.8,62.5,61.6,58.8,77,67,60,30.01,29.90,16,11,16,0.00
2012-5-9,77.0,71.0,64.4,67.7,63.7,60.5,88,78,69,29.92,29.66,21,7,21,0.00
2012-5-10,77.0,68.3,59.0,62.3,50.9,44.0,82,57,31,29.96,29.71,21,9,21,0.04
2012-5-11,75.2,65.8,53.6,53.5,49.2,45.7,81,57,35,30.23,29.96,12,6,12,0.00
2012-5-12,75.2,67.7,55.4,60.5,53.0,48.0,82,61,43,30.35,30.23,13,6,13,0.00
2012-5-13,71.6,69.8,66.2,62.5,61.1,58.8,88,74,64,30.28,30.14,20,11,20,0.00
2012-5-14,77.0,73.2,69.8,69.7,64.5,58.8,88,74,64,30.15,29.99,14,11,14,0.04
2012-5-15,80.6,75.3,71.6,69.7,68.0,66.1,88,78,69,30.07,29.94,17,10,17,0.04
2012-5-16,80.6,73.2,66.2,71.5,66.3,60.5,88,79,68,30.00,29.87,15,7,15,0.00
2012-5-17,78.8,69.9,66.2,66.0,62.1,60.5,88,77,64,29.96,29.89,17,6,17,0.09
2012-5-18,71.6,67.1,64.4,62.5,58.0,53.2,88,73,56,30.02,29.93,24,12,24,0.00
2012-5-19,71.6,62.7,55.4,53.6,47.6,42.4,77,58,48,30.08,29.99,30,13,30,0.02
2012-5-20,78.8,68.6,57.2,64.3,55.8,46.0,77,64,49,30.08,30.01,17,11,17,0.00
2012-5-21,80.6,71.3,62.6,66.0,62.3,57.0,93,74,57,30.02,29.90,9,7,9,0.00
2012-5-22,80.6,72.6,66.2,69.5,64.9,57.0,88,77,65,29.92,29.82,12,7,12,0.00
2012-5-23,80.6,72.8,62.6,69.7,64.3,56.9,88,75,61,29.96,29.85,12,6,12,0.00
2012-5-24,80.6,76.0,66.2,71.5,69.0,56.9,88,79,65,30.03,29.94,15,8,15,0.00
2012-5-25,82.4,75.5,69.8,71.5,68.2,62.3,94,78,65,30.08,30.01,14,8,14,0.00
2012-5-26,86.0,76.1,69.8,69.5,66.1,62.3,88,72,58,30.09,30.01,28,14,28,0.00
2012-5-27,82.4,77.0,71.6,71.5,69.4,65.9,88,78,69,30.08,29.99,26,16,26,0.00
2012-5-28,82.4,78.4,75.2,73.3,71.0,69.6,88,78,69,30.07,30.02,16,11,16,0.00
2012-5-29,82.4,78.3,75.2,73.3,70.9,69.4,88,78,69,30.04,29.83,21,12,21,0.00
2012-5-30,82.4,76.2,69.8,71.4,67.0,62.3,88,74,57,29.84,29.56,37,18,37,0.97
2012-5-31,87.8,77.3,66.2,69.4,64.1,60.5,83,66,40,29.91,29.84,14,8,14,0.00
2012-6-1,82.4,78.6,71.6,73.3,70.2,64.4,83,76,69,29.92,29.79,29,15,29,0.00
2012-6-2,80.6,74.0,62.6,66.2,62.0,55.1,88,68,47,29.90,29.76,16,8,16,0.00
2012-6-3,82.4,71.3,57.2,65.9,55.4,49.6,82,60,34,29.98,29.87,16,7,16,0.00
2012-6-4,77.0,73.5,69.8,66.2,65.0,64.1,83,75,65,29.87,29.70,16,8,16,0.00
2012-6-5,71.6,68.8,64.4,66.2,62.0,58.8,88,79,64,29.88,29.67,20,8,20,0.00
2012-6-6,84.2,66.5,60.8,62.5,58.9,55.3,88,78,42,29.98,29.85,20,9,20,0.00
2012-6-7,75.2,68.1,59.0,58.9,56.2,51.4,87,67,53,30.05,29.98,12,7,12,0.00
2012-6-8,80.6,70.6,57.2,62.4,58.8,53.4,87,68,54,30.06,29.99,13,5,13,0.00
2012-6-9,82.4,73.0,60.8,66.0,61.3,55.3,87,68,50,30.11,30.04,15,6,15,0.00
2012-6-10,80.6,77.5,73.4,67.7,65.3,62.2,73,66,61,30.18,30.08,14,10,14,0.00
2012-6-11,82.4,77.2,73.4,71.5,68.6,65.9,88,75,69,30.18,30.08,30,15,30,0.00
2012-6-12,80.6,75.4,71.6,71.4,68.8,65.9,83,80,69,30.09,29.90,21,10,21,0.00
2012-6-13,86.0,77.8,71.6,71.5,69.0,64.4,88,75,58,29.96,29.87,12,7,12,0.00
2012-6-14,82.4,73.9,64.4,67.9,62.1,57.0,88,68,47,30.11,29.96,23,9,23,0.67
2012-6-15,80.6,71.7,62.6,64.3,59.9,55.2,77,67,54,30.16,30.08,16,11,16,0.00
2012-6-16,78.8,70.3,60.8,64.3,59.9,53.5,82,70,57,30.21,30.13,12,9,12,0.00
2012-6-17,78.8,70.0,57.2,62.5,57.9,51.7,87,66,53,30.17,30.03,17,7,17,0.00
2012-6-18,80.6,72.1,60.8,66.0,60.5,55.3,82,68,54,30.13,30.05,13,7,13,0.00
2012-6-19,82.4,74.2,62.6,67.7,62.6,57.0,88,68,54,30.19,30.13,12,5,12,0.00
2012-6-20,82.4,75.8,66.2,69.5,66.3,62.3,88,73,54,30.19,30.10,9,6,9,0.00
2012-6-21,84.2,77.3,66.2,71.2,66.3,62.3,88,70,57,30.11,29.95,17,8,17,0.00
2012-6-22,84.2,77.6,69.8,71.2,66.6,64.1,82,69,58,29.98,29.89,33,10,33,0.00
2012-6-23,86.0,78.8,71.6,73.3,69.6,64.4,83,74,62,30.02,29.91,21,9,21,0.00
2012-6-24,84.2,79.6,73.4,75.0,71.9,67.9,88,78,65,30.03,29.93,14,6,14,0.00
2012-6-25,82.4,77.9,73.4,71.5,70.2,67.9,88,77,69,29.94,29.75,14,6,14,0.00
2012-6-26,78.8,73.7,68.0,71.4,61.8,55.3,94,68,50,29.85,29.68,25,13,25,0.06
2012-6-27,84.2,73.0,59.0,62.2,54.7,51.5,82,55,34,29.98,29.81,20,12,20,0.00
2012-6-28,89.6,76.6,62.6,67.8,61.1,55.0,88,62,31,30.05,29.94,16,9,16,0.00
2012-6-29,93.2,83.1,73.4,75.2,69.2,62.3,88,64,55,29.96,29.80,14,8,14,0.00
2012-6-30,96.8,85.2,75.2,78.5,73.9,69.7,88,70,53,29.91,29.81,17,7,17,0.00
2012-7-1,93.2,84.1,78.8,80.2,73.6,62.4,83,71,54,30.06,29.88,46,12,46,0.00
2012-7-2,93.2,83.0,73.4,73.4,66.2,60.4,74,58,41,30.08,29.92,29,10,29,0.00
2012-7-3,91.4,83.3,75.2,75.1,70.9,65.9,78,67,52,30.11,29.94,17,9,17,0.00
2012-7-4,91.4,84.5,75.2,75.1,72.0,69.4,88,67,49,30.03,29.93,15,9,15,0.00
2012-7-5,93.2,83.2,73.4,78.7,72.8,66.1,83,71,59,30.01,29.88,18,9,18,0.70
2012-7-6,93.2,84.9,78.8,75.1,73.2,71.2,83,69,49,30.00,29.92,12,8,12,0.00
2012-7-7,91.4,84.4,77.0,76.5,72.3,67.8,78,68,55,30.05,29.97,23,11,23,0.00
2012-7-8,96.8,86.3,78.8,78.7,73.1,71.2,78,66,47,30.03,29.89,23,12,23,0.00
2012-7-9,95.0,85.7,78.8,76.7,73.0,69.4,74,66,49,29.95,29.87,30,15,30,0.00
2012-7-10,89.6,77.2,71.6,75.1,69.2,65.9,88,77,62,30.05,29.91,35,8,35,0.00
2012-7-11,84.2,76.4,71.6,71.5,68.3,64.2,88,76,65,30.09,29.99,21,5,21,1.30
2012-7-12,84.2,79.0,73.4,74.9,69.5,64.2,88,73,65,30.15,30.06,13,6,13,0.00
2012-7-13,86.0,80.5,75.2,73.3,71.3,67.9,88,74,62,30.19,30.10,14,7,14,0.00
2012-7-14,87.8,82.3,75.2,73.4,71.7,69.4,94,71,62,30.23,30.14,16,8,16,0.00
2012-7-15,86.0,81.2,73.4,73.3,70.2,66.1,83,70,62,30.21,30.10,16,7,16,0.00
2012-7-16,87.8,81.5,73.4,73.3,70.0,65.9,83,69,58,30.13,29.96,14,7,14,0.00
2012-7-17,89.6,81.9,75.2,73.4,70.6,67.9,83,69,58,30.01,29.93,16,8,16,0.00
2012-7-18,89.6,81.7,75.2,73.4,69.9,65.9,78,68,58,30.05,29.93,24,11,24,0.00
2012-7-19,91.4,83.7,78.8,74.9,71.1,69.4,88,67,52,30.08,30.00,30,12,30,0.00
2012-7-20,89.6,82.8,77.0,75.0,71.1,67.7,78,68,55,30.04,29.94,33,16,33,0.00
2012-7-21,89.6,82.7,78.8,73.4,68.8,66.0,74,63,52,30.10,30.00,24,13,24,0.00
2012-7-22,93.2,84.4,78.8,75.0,72.4,69.4,78,68,49,30.20,30.10,17,10,17,0.00
2012-7-23,89.6,83.3,77.0,75.0,72.1,69.4,83,70,55,30.21,30.07,25,11,25,0.00
2012-7-24,96.8,85.9,75.2,73.4,70.9,67.7,83,62,44,30.08,29.86,20,11,20,0.00
2012-7-25,89.6,80.8,73.4,73.4,69.1,64.3,78,68,58,29.99,29.89,18,9,18,0.00
2012-7-26,91.4,85.5,78.8,78.5,75.2,71.2,83,72,62,29.94,29.84,17,9,17,0.00
2012-7-27,93.2,86.0,80.6,78.7,74.4,71.2,78,69,59,29.95,29.87,22,10,22,0.00
2012-7-28,89.6,81.0,75.2,75.0,71.2,67.7,88,72,62,30.01,29.94,25,8,25,0.00
2012-7-29,89.6,78.7,73.4,76.8,70.3,65.9,88,76,58,30.01,29.90,28,7,28,0.00
2012-7-30,80.6,78.0,73.4,73.2,70.3,67.7,88,77,69,30.00,29.93,29,9,29,0.00
2012-7-31,86.0,79.4,73.4,73.3,71.0,66.1,83,76,66,29.98,29.90,14,6,14,0.00
2012-8-1,87.8,78.7,75.2,78.5,70.5,67.9,88,76,65,29.95,29.86,13,4,13,0.00
2012-8-2,87.8,81.5,73.4,75.0,71.8,64.2,88,73,58,29.99,29.87,26,8,26,0.02
2012-8-3,89.6,79.8,71.6,73.3,68.5,64.2,83,69,51,30.09,29.96,14,8,14,0.04
2012-8-4,87.8,81.7,73.4,75.1,71.8,65.9,88,72,65,30.22,30.07,12,6,12,0.00
2012-8-5,86.0,81.5,75.2,75.1,72.1,69.4,83,73,69,30.23,30.13,18,10,18,0.00
2012-8-6,87.8,80.9,73.4,75.1,71.2,67.9,88,73,62,30.16,30.05,17,6,17,0.04
2012-8-7,82.4,78.8,75.2,73.3,70.9,67.9,88,77,69,30.07,29.99,21,6,21,0.70
2012-8-8,82.4,78.1,75.2,71.5,70.0,69.4,88,76,65,30.04,29.97,10,5,10,0.00
2012-8-9,86.0,79.6,71.6,73.3,69.9,64.4,83,73,65,30.01,29.90,22,8,22,0.00
2012-8-10,87.8,80.3,75.2,73.3,70.8,67.7,83,73,58,29.94,29.87,24,13,24,0.00
2012-8-11,87.8,79.4,71.6,75.0,70.2,65.9,83,74,62,29.98,29.91,29,13,29,0.00
2012-8-12,84.2,77.6,71.6,73.3,70.0,66.1,88,78,65,30.01,29.94,12,4,12,0.00
2012-8-13,87.8,80.4,73.4,75.1,72.8,69.6,88,78,66,30.05,29.96,20,7,20,0.00
2012-8-14,91.4,82.2,73.4,73.3,70.0,65.8,88,68,43,30.00,29.90,17,8,17,0.00
2012-8-15,91.4,83.3,78.8,76.8,72.2,69.4,83,70,49,30.01,29.89,16,8,16,0.00
2012-8-16,87.8,80.7,73.4,73.2,69.7,65.7,88,70,48,30.02,29.94,12,9,12,0.00
2012-8-17,87.8,78.5,71.6,73.3,69.5,64.2,88,74,62,30.01,29.86,17,6,17,0.00
2012-8-18,84.2,77.5,71.6,75.0,69.0,64.2,88,75,65,29.91,29.82,12,4,12,0.00
2012-8-19,86.0,78.6,73.4,75.1,70.9,66.1,88,78,65,29.89,29.84,23,7,23,0.00
2012-8-20,84.2,77.6,75.2,71.2,69.1,65.9,83,76,58,29.96,29.84,21,8,21,0.00
2012-8-21,80.6,76.7,71.6,71.5,69.1,66.1,88,78,69,30.05,29.94,23,7,23,0.00
2012-8-22,82.4,76.2,71.6,73.3,69.7,66.1,88,81,69,30.08,30.01,14,6,14,0.00
2012-8-23,80.6,74.6,71.6,71.5,68.0,64.4,88,80,69,30.10,30.04,17,9,17,0.00
2012-8-24,75.2,71.9,68.0,69.7,65.1,60.5,83,79,73,30.10,30.04,17,10,17,0.00
2012-8-25,80.6,72.6,68.0,64.4,62.2,60.5,78,70,54,30.13,30.05,15,9,15,0.00
2012-8-26,84.2,74.8,64.4,73.2,65.6,58.8,88,74,51,30.17,30.07,12,9,12,0.00
2012-8-27,86.0,79.1,73.4,76.7,72.3,66.1,94,80,70,30.10,30.02,17,10,17,0.00
2012-8-28,82.4,77.7,73.4,73.2,71.0,67.9,88,80,69,30.05,29.98,13,7,13,0.01
2012-8-29,84.2,76.6,73.4,73.3,70.0,65.9,88,81,65,30.03,29.93,13,6,13,0.03
2012-8-30,80.6,76.3,71.6,71.5,68.7,65.9,88,77,65,30.21,29.99,8,4,8,0.00
2012-8-31,84.2,78.4,71.6,73.3,69.1,64.2,88,73,65,30.24,30.13,21,6,21,0.00
2012-9-1,78.8,78.8,77.0,71.4,69.4,69.4,83,73,73,30.16,30.15,6,6,6,0.00
2012-9-2,84.2,79.3,78.8,73.3,69.7,69.4,74,73,69,30.15,29.98,9,6,9,0.00
2012-9-3,87.8,81.8,75.2,73.3,70.1,66.1,83,68,58,30.06,29.98,23,10,23,0.00
2012-9-4,84.2,81.8,75.2,69.8,67.6,52.8,73,63,34,30.04,29.84,21,12,21,0.00
2012-9-5,87.8,82.1,77.0,71.2,69.4,67.7,78,66,58,29.99,29.91,23,12,23,0.00
2012-9-6,87.8,82.2,77.0,73.3,70.7,69.4,78,69,55,29.99,29.90,20,10,20,0.00
2012-9-7,84.2,79.7,73.4,73.3,70.1,67.8,83,73,62,29.97,29.87,13,7,13,0.00
2012-9-8,87.8,80.7,73.4,73.3,70.7,65.9,83,72,62,29.89,29.76,23,11,23,0.05
2012-9-9,80.6,74.9,69.8,67.9,63.3,55.1,83,68,54,29.97,29.77,17,9,17,0.02
2012-9-10,80.6,69.1,60.8,57.0,53.2,48.0,77,59,32,30.14,29.96,15,7,15,0.00
2012-9-11,80.6,70.6,60.8,64.3,51.6,45.6,77,53,31,30.28,30.14,18,9,18,0.06
2012-9-12,78.8,69.6,59.0,60.8,53.4,45.9,73,57,41,30.32,30.25,13,8,13,0.00
2012-9-13,82.4,73.2,62.6,62.5,59.9,55.2,77,64,51,30.29,30.20,18,12,18,0.00
2012-9-14,82.4,73.3,66.2,66.1,63.2,58.6,82,72,51,30.22,30.12,12,8,12,0.00
2012-9-15,82.4,74.7,66.2,69.4,64.8,60.5,88,72,61,30.16,30.09,14,7,14,0.00
2012-9-16,82.4,74.4,66.2,69.6,64.1,60.5,82,71,57,30.14,30.05,14,7,14,0.00
2012-9-17,82.4,77.0,68.0,69.5,66.9,62.3,83,72,65,30.09,29.98,23,8,23,0.00
2012-9-18,84.2,79.9,75.2,73.3,69.3,64.3,78,70,65,29.98,29.77,30,22,30,0.00
2012-9-19,78.8,72.0,64.4,67.8,63.0,55.2,82,74,64,30.09,29.85,17,8,17,4.49
2012-9-20,75.2,69.2,64.4,62.2,57.7,55.2,77,67,60,30.15,30.05,12,9,12,0.00
2012-9-21,78.8,70.2,60.8,60.7,57.5,51.7,77,65,47,30.10,30.03,12,6,12,0.00
2012-9-22,82.4,73.1,64.4,66.1,60.9,55.2,77,66,54,30.05,29.97,17,7,17,0.00
2012-9-23,80.6,72.7,60.8,62.5,55.4,45.9,77,57,36,30.10,29.98,22,10,22,0.00
2012-9-24,75.2,66.7,57.2,51.4,47.0,44.1,71,51,33,30.19,30.08,17,10,17,0.00
2012-9-25,77.0,65.8,53.6,57.1,50.0,44.1,72,58,33,30.24,30.17,13,6,13,0.00
2012-9-26,80.6,69.5,57.2,62.4,57.1,49.7,82,66,50,30.24,30.17,12,6,12,0.00
2012-9-27,82.4,71.3,57.2,62.5,58.4,51.4,82,65,45,30.22,30.11,12,6,12,0.00
2012-9-28,84.2,74.3,64.4,66.1,61.9,55.2,78,66,51,30.12,30.01,14,6,14,0.00
2012-9-29,82.4,74.5,69.8,66.0,63.8,60.5,82,70,54,30.03,29.87,12,6,12,0.00
2012-9-30,71.6,68.4,64.4,62.5,61.2,56.9,88,78,68,29.92,29.86,12,7,12,0.00
2012-10-1,82.4,74.7,68.0,73.3,67.5,60.5,88,79,73,29.88,29.81,16,10,16,0.00
2012-10-2,84.2,80.2,75.2,75.0,72.2,69.6,88,77,65,30.00,29.80,23,15,23,0.00
2012-10-3,82.4,79.0,75.2,73.2,69.5,65.9,83,73,61,30.20,30.00,28,12,28,0.00
2012-10-4,82.4,75.9,69.8,66.1,65.0,62.3,82,70,57,30.24,30.16,10,5,10,0.00
2012-10-5,82.4,72.3,64.4,64.4,59.8,55.2,82,66,47,30.20,30.04,14,8,14,0.22
2012-10-6,80.6,72.3,62.6,64.3,59.8,53.4,82,66,50,30.04,29.90,17,5,17,0.20
2012-10-7,82.4,74.0,62.6,69.5,63.9,51.5,78,71,58,30.07,29.94,22,8,22,0.02
2012-10-8,64.4,58.6,51.8,53.4,48.2,42.5,72,68,63,30.13,30.04,17,13,17,0.00
2012-10-9,60.8,55.7,51.8,53.6,48.6,42.5,100,77,66,30.13,30.05,17,12,17,0.02
2012-10-10,73.4,60.1,50.0,62.3,51.9,42.7,100,76,56,30.13,30.00,20,7,20,0.05
2012-10-11,69.8,60.5,51.8,57.2,51.5,45.9,100,75,46,30.28,30.02,17,8,17,0.00
2012-10-12,75.2,60.7,48.2,59.0,53.2,46.3,100,79,49,30.27,30.15,12,4,12,0.00
2012-10-13,73.4,62.4,51.8,57.0,53.2,49.7,100,74,53,30.39,30.27,21,13,21,0.00
2012-10-14,78.8,65.8,53.6,66.2,58.4,49.7,100,80,47,30.31,30.07,10,8,10,0.00
2012-10-15,80.6,71.4,60.8,71.4,66.4,58.8,100,85,65,30.07,29.76,17,8,17,0.00
2012-10-16,69.8,60.9,51.8,62.5,48.4,44.0,100,66,40,29.96,29.83,17,10,17,0.00
2012-10-17,69.8,60.5,50.0,60.5,53.7,48.1,100,80,59,30.01,29.92,12,5,12,0.00
2012-10-18,78.8,67.3,55.4,71.6,64.1,53.4,100,90,65,29.95,29.82,15,8,15,0.00
2012-10-19,77.0,70.9,60.8,71.6,58.4,42.5,100,69,33,29.84,29.76,17,7,17,0.00
2012-10-20,75.2,63.5,51.8,51.8,48.7,42.5,93,63,33,29.94,29.80,15,8,15,0.00
2012-10-21,69.8,58.8,50.0,51.8,46.3,42.3,100,67,37,30.15,29.93,16,9,16,0.00
2012-10-22,71.6,57.1,44.6,51.6,46.7,42.7,100,73,37,30.24,30.15,10,5,10,0.00
2012-10-23,73.4,59.1,46.4,58.8,52.7,46.3,100,82,53,30.22,30.13,10,3,10,0.00
2012-10-24,78.8,65.1,53.6,69.8,60.1,53.4,100,86,47,30.20,30.10,12,5,12,0.00
2012-10-25,78.8,69.9,60.8,69.8,65.0,58.8,100,86,65,30.13,30.05,20,10,20,0.00
2012-10-26,80.6,69.0,62.6,66.1,63.6,57.0,100,84,61,30.05,29.74,29,16,29,0.00
2012-10-27,69.8,65.5,64.4,66.2,63.1,57.0,100,92,77,29.80,29.52,35,28,35,0.00
2012-10-28,66.2,63.9,59.0,57.0,52.6,49.8,77,67,59,29.57,29.50,33,23,33,0.00
2012-10-29,59.0,54.0,48.2,51.8,39.5,33.7,87,59,41,29.58,29.48,32,18,32,0.00
2012-10-30,57.2,51.6,48.2,37.3,34.5,29.8,61,52,40,29.70,29.47,25,16,28,0.00
2012-10-31,62.6,51.3,42.8,38.7,34.4,30.0,75,54,36,29.87,29.70,21,10,21,0.00
2012-11-1,62.6,49.8,39.2,37.1,31.6,28.1,80,53,27,29.90,29.78,20,9,20,0.00
2012-11-2,71.6,54.1,37.4,46.3,36.0,29.9,76,53,30,29.97,29.82,22,8,22,0.00
2012-11-3,64.4,52.7,39.2,46.3,39.8,31.5,93,65,31,30.12,29.95,12,7,12,0.00
2012-11-4,80.6,63.8,48.2,62.6,55.6,46.3,100,79,41,30.05,29.90,23,9,23,0.00
2012-11-5,60.8,51.6,46.4,51.8,44.3,38.7,100,79,44,30.08,29.93,16,11,16,0.10
2012-11-6,51.8,45.7,42.8,44.5,39.5,35.4,93,79,70,30.06,29.88,18,14,18,0.00
2012-11-7,55.4,45.3,37.4,40.9,36.1,33.5,93,72,47,29.94,29.83,16,8,16,0.00
2012-11-8,60.8,45.8,35.6,37.4,34.1,25.7,100,69,26,30.11,29.94,20,7,20,0.00
2012-11-9,60.8,46.4,33.8,42.8,34.6,28.1,100,67,35,30.29,30.11,12,5,12,0.00
2012-11-10,64.4,50.5,37.4,51.8,43.6,35.6,100,81,48,30.39,30.27,13,4,13,0.00
2012-11-11,69.8,58.6,44.6,62.3,55.0,42.7,100,89,73,30.48,30.38,17,10,17,0.00
2012-11-12,75.2,66.3,59.0,64.4,62.4,58.8,100,88,69,30.40,30.22,20,8,20,0.00
2012-11-13,71.6,62.0,48.2,64.4,58.0,46.3,100,87,72,30.32,30.16,24,10,24,0.00
2012-11-14,53.6,49.0,44.6,46.3,43.6,40.9,100,82,71,30.39,30.29,26,16,26,0.00
2012-11-15,51.8,46.6,42.8,51.8,45.3,40.9,100,95,87,30.31,30.16,23,14,23,0.59
2012-11-16,59.0,50.8,46.4,57.2,46.3,42.7,100,86,62,30.33,30.16,23,13,23,0.00
2012-11-17,55.4,49.5,41.0,48.0,43.1,37.1,93,79,66,30.36,30.29,17,15,17,0.00
2012-11-18,55.4,52.9,48.2,53.6,50.5,46.2,100,92,76,30.33,30.16,32,24,32,0.04
2012-11-19,59.0,55.3,51.8,53.4,50.4,47.9,93,84,76,30.18,30.10,31,22,31,0.00
2012-11-20,60.8,53.5,48.2,51.8,48.4,46.2,100,83,67,30.12,30.03,21,13,21,0.00
2012-11-21,60.8,50.2,42.8,46.3,42.8,37.1,100,77,54,30.12,30.04,25,12,25,0.00
2012-11-22,64.4,48.1,39.2,39.0,34.3,28.3,86,63,29,30.18,30.10,23,10,23,0.00
2012-11-23,66.2,49.5,33.8,48.1,37.7,30.0,93,67,32,30.17,29.91,12,6,12,0.00
2012-11-24,57.2,49.7,35.6,44.5,33.7,26.3,76,57,33,30.11,29.89,23,12,23,0.00
2012-11-25,51.8,39.8,28.4,37.3,28.3,20.8,93,66,36,30.22,30.10,21,7,21,0.00
2012-11-26,66.2,48.3,33.8,55.3,37.4,25.8,100,71,23,30.25,30.13,14,5,14,0.00
2012-11-27,60.8,49.8,35.6,51.8,42.8,29.9,100,79,44,30.21,30.09,17,5,17,0.00
2012-11-28,55.4,47.7,35.6,50.0,40.1,33.3,100,78,46,30.40,30.17,17,10,17,0.00
2012-11-29,55.4,41.4,30.2,39.1,33.8,28.2,100,78,47,30.49,30.38,12,4,12,0.00
2012-11-30,60.8,45.3,32.0,48.0,39.2,28.3,100,82,47,30.42,30.32,9,2,9,0.00
2012-12-1,64.4,51.1,39.2,53.5,46.1,39.1,100,85,55,30.41,30.32,10,4,10,0.00
2012-12-2,66.2,54.8,44.6,57.0,51.9,42.7,100,90,68,30.41,30.29,12,4,12,0.00
2012-12-3,75.2,56.8,46.4,60.5,54.0,44.5,100,92,57,30.34,30.26,12,4,12,0.00
2012-12-4,69.8,61.7,53.6,60.8,56.7,42.6,100,85,45,30.36,30.25,12,6,12,0.00
2012-12-5,75.2,62.0,48.2,59.0,54.6,48.2,100,80,43,30.25,30.10,12,5,12,0.00
2012-12-6,60.8,54.8,50.0,58.8,47.0,40.8,93,76,62,31.19,30.15,17,13,17,0.00
2012-12-7,64.4,56.3,48.2,62.6,52.7,42.7,100,88,71,30.15,29.99,16,10,16,0.00
2012-12-8,62.6,57.2,53.6,57.2,55.0,51.6,100,92,77,30.09,29.98,13,5,13,0.00
2012-12-9,69.8,59.9,50.0,64.4,57.6,48.1,100,92,77,30.16,30.01,12,4,12,0.00
2012-12-10,69.8,64.9,62.6,66.2,62.3,59.0,100,91,77,30.01,29.79,17,9,17,0.00
2012-12-11,71.6,67.5,60.8,66.2,61.5,56.9,100,82,68,30.07,29.79,23,8,23,0.00
2012-12-12,60.8,50.8,42.8,60.8,49.5,40.9,100,95,87,30.24,30.04,30,14,30,0.10
2012-12-13,50.0,44.8,41.0,44.5,41.2,38.9,100,87,76,30.32,30.13,24,15,24,0.03
2012-12-14,57.2,45.1,35.6,42.7,37.7,35.4,100,78,44,30.36,30.24,14,8,14,0.00
2012-12-15,60.8,50.9,37.4,57.2,46.2,35.6,100,85,50,30.25,30.09,9,4,9,0.00
2012-12-16,62.6,57.3,53.6,60.5,55.9,51.6,100,95,87,30.11,29.92,13,3,13,0.00
2012-12-17,64.4,63.0,59.0,62.6,61.1,57.0,100,94,88,29.92,29.73,17,7,17,0.00
2012-12-18,66.2,59.3,46.4,57.0,47.8,33.3,100,69,39,29.97,29.74,28,12,28,0.00
2012-12-19,66.2,52.1,42.8,48.1,38.0,33.1,100,63,31,30.12,29.96,17,8,17,0.00
2012-12-20,68.0,55.1,39.2,62.3,51.0,38.9,100,87,68,30.12,29.60,41,12,41,0.05
2012-12-21,64.4,47.5,41.0,62.3,29.8,20.5,93,51,31,29.90,29.60,41,26,41,0.10
2012-12-22,51.8,42.3,35.6,26.5,21.3,18.8,56,44,27,30.15,29.90,25,14,25,0.00
2012-12-23,53.6,43.5,30.2,41.0,31.8,24.4,92,64,43,30.21,30.09,10,5,10,0.00
2012-12-24,60.8,51.0,41.0,46.3,37.4,28.2,87,61,41,30.11,29.94,17,5,17,0.00
2012-12-25,59.0,51.6,41.0,53.6,49.0,39.1,100,91,76,30.11,29.95,22,6,22,0.01
2012-12-26,68.0,57.5,44.6,62.6,51.5,29.9,100,82,51,29.99,29.48,32,20,32,0.30
2012-12-27,53.6,42.1,35.6,37.4,32.8,29.9,93,70,46,30.06,29.74,26,11,30,0.00
2012-12-28,51.8,41.8,33.8,41.0,35.3,30.1,100,79,56,30.17,29.99,12,6,12,0.00
2012-12-29,55.4,48.2,44.6,52.5,45.9,38.9,100,92,81,29.99,29.71,18,9,18,0.17